sensor_id;sensor_type;location;lat;lon;timestamp;noise_LAeq;noise_LA_min;noise_LA_max;noise_LA01;noise_LA95
49568;Laerm;35474;51.032;6.998;2024-02-21T00:02:23;55.49;42.82;69.62;;
49568;Laerm;35474;51.032;6.998;2024-02-21T00:04:50;49.86;41.61;73.56;;
49568;Laerm;35474;51.032;6.998;2024-02-21T00:07:17;63.83;41.14;89.71;;
49568;Laerm;35474;51.032;6.998;2024-02-21T00:09:44;44.55;41.94;52.63;;
49568;Laerm;35474;51.032;6.998;2024-02-21T00:12:10;57.40;41.61;71.53;;
49568;Laerm;35474;51.032;6.998;2024-02-21T00:14:37;60.64;42.82;86.43;;
49568;Laerm;35474;51.032;6.998;2024-02-21T00:17:03;61.52;41.53;88.39;;
49568;Laerm;35474;51.032;6.998;2024-02-21T00:19:32;53.75;41.96;69.66;;
49568;Laerm;35474;51.032;6.998;2024-02-21T00:21:59;56.15;42.35;67.46;;
49568;Laerm;35474;51.032;6.998;2024-02-21T00:24:25;60.20;41.96;82.00;;
49568;Laerm;35474;51.032;6.998;2024-02-21T00:26:53;60.03;42.29;82.90;;
49568;Laerm;35474;51.032;6.998;2024-02-21T00:29:20;66.82;41.46;90.55;;
49568;Laerm;35474;51.032;6.998;2024-02-21T00:31:48;59.21;40.71;88.41;;
49568;Laerm;35474;51.032;6.998;2024-02-21T00:34:15;56.36;41.82;80.17;;
49568;Laerm;35474;51.032;6.998;2024-02-21T00:36:42;65.00;42.29;85.64;;
49568;Laerm;35474;51.032;6.998;2024-02-21T00:39:08;64.44;42.53;85.94;;
49568;Laerm;35474;51.032;6.998;2024-02-21T00:41:35;60.73;43.19;83.84;;
49568;Laerm;35474;51.032;6.998;2024-02-21T00:44:01;68.21;41.68;87.33;;
49568;Laerm;35474;51.032;6.998;2024-02-21T00:46:28;64.75;41.68;86.49;;
49568;Laerm;35474;51.032;6.998;2024-02-21T00:48:55;52.88;40.80;77.16;;
49568;Laerm;35474;51.032;6.998;2024-02-21T00:51:21;57.72;40.80;82.23;;
49568;Laerm;35474;51.032;6.998;2024-02-21T00:53:48;54.54;42.19;78.82;;
49568;Laerm;35474;51.032;6.998;2024-02-21T00:56:14;54.76;43.54;68.56;;
49568;Laerm;35474;51.032;6.998;2024-02-21T01:00:35;57.63;40.89;80.21;;
49568;Laerm;35474;51.032;6.998;2024-02-21T01:03:02;64.46;41.75;90.58;;
49568;Laerm;35474;51.032;6.998;2024-02-21T01:05:28;65.18;40.98;87.82;;
49568;Laerm;35474;51.032;6.998;2024-02-21T01:07:55;56.31;39.81;80.50;;
49568;Laerm;35474;51.032;6.998;2024-02-21T01:10:22;51.85;41.96;67.62;;
49568;Laerm;35474;51.032;6.998;2024-02-21T01:12:49;54.10;42.41;67.46;;
49568;Laerm;35474;51.032;6.998;2024-02-21T01:15:16;64.60;41.22;90.42;;
49568;Laerm;35474;51.032;6.998;2024-02-21T01:17:42;64.02;41.30;88.84;;
49568;Laerm;35474;51.032;6.998;2024-02-21T01:20:09;58.58;41.53;82.35;;
49568;Laerm;35474;51.032;6.998;2024-02-21T01:22:36;66.93;41.82;89.44;;
49568;Laerm;35474;51.032;6.998;2024-02-21T01:25:02;51.69;41.22;76.77;;
49568;Laerm;35474;51.032;6.998;2024-02-21T01:27:29;52.01;42.09;78.48;;
49568;Laerm;35474;51.032;6.998;2024-02-21T01:29:55;61.54;40.98;86.63;;
49568;Laerm;35474;51.032;6.998;2024-02-21T01:32:22;56.59;41.06;79.97;;
49568;Laerm;35474;51.032;6.998;2024-02-21T01:34:51;63.35;41.89;87.30;;
49568;Laerm;35474;51.032;6.998;2024-02-21T01:37:18;60.08;42.09;81.41;;
49568;Laerm;35474;51.032;6.998;2024-02-21T01:39:44;64.42;41.82;85.21;;
49568;Laerm;35474;51.032;6.998;2024-02-21T01:42:11;55.06;41.30;75.47;;
49568;Laerm;35474;51.032;6.998;2024-02-21T01:44:37;61.76;40.43;90.32;;
49568;Laerm;35474;51.032;6.998;2024-02-21T01:47:04;67.59;39.92;92.47;;
49568;Laerm;35474;51.032;6.998;2024-02-21T01:49:31;57.13;40.80;79.09;;
49568;Laerm;35474;51.032;6.998;2024-02-21T01:51:58;63.95;42.29;87.11;;
49568;Laerm;35474;51.032;6.998;2024-02-21T01:54:25;64.88;42.41;91.83;;
49568;Laerm;35474;51.032;6.998;2024-02-21T01:56:54;54.75;41.82;78.59;;
49568;Laerm;35474;51.032;6.998;2024-02-21T01:59:21;52.84;43.58;67.90;;
49568;Laerm;35474;51.032;6.998;2024-02-21T02:01:49;61.86;42.16;89.29;;
49568;Laerm;35474;51.032;6.998;2024-02-21T02:04:16;59.22;41.75;78.09;;
49568;Laerm;35474;51.032;6.998;2024-02-21T02:06:43;57.59;42.53;76.99;;
49568;Laerm;35474;51.032;6.998;2024-02-21T02:09:10;58.85;41.53;78.87;;
49568;Laerm;35474;51.032;6.998;2024-02-21T02:11:36;57.16;42.59;80.52;;
49568;Laerm;35474;51.032;6.998;2024-02-21T02:14:03;56.76;42.35;78.90;;
49568;Laerm;35474;51.032;6.998;2024-02-21T02:16:29;60.67;41.06;85.31;;
49568;Laerm;35474;51.032;6.998;2024-02-21T02:18:56;65.68;41.61;89.07;;
49568;Laerm;35474;51.032;6.998;2024-02-21T02:21:29;66.96;41.96;88.15;;
49568;Laerm;35474;51.032;6.998;2024-02-21T02:23:56;56.94;41.38;80.46;;
49568;Laerm;35474;51.032;6.998;2024-02-21T02:26:22;53.52;41.96;77.11;;
49568;Laerm;35474;51.032;6.998;2024-02-21T02:28:49;54.23;41.82;76.98;;
49568;Laerm;35474;51.032;6.998;2024-02-21T02:31:16;54.93;42.16;76.24;;
49568;Laerm;35474;51.032;6.998;2024-02-21T02:33:43;65.44;42.09;92.30;;
49568;Laerm;35474;51.032;6.998;2024-02-21T02:36:10;60.82;42.53;82.97;;
49568;Laerm;35474;51.032;6.998;2024-02-21T02:38:37;63.19;42.47;89.16;;
49568;Laerm;35474;51.032;6.998;2024-02-21T02:41:04;62.53;42.98;86.16;;
49568;Laerm;35474;51.032;6.998;2024-02-21T02:43:30;58.10;42.16;81.13;;
49568;Laerm;35474;51.032;6.998;2024-02-21T02:45:57;61.53;41.89;87.31;;
49568;Laerm;35474;51.032;6.998;2024-02-21T02:48:24;63.77;42.82;86.79;;
49568;Laerm;35474;51.032;6.998;2024-02-21T02:50:51;63.37;41.75;85.56;;
49568;Laerm;35474;51.032;6.998;2024-02-21T02:53:17;61.94;43.99;84.75;;
49568;Laerm;35474;51.032;6.998;2024-02-21T02:55:44;70.86;43.58;96.82;;
49568;Laerm;35474;51.032;6.998;2024-02-21T02:58:11;60.50;42.93;87.93;;
49568;Laerm;35474;51.032;6.998;2024-02-21T03:00:38;45.73;43.29;56.64;;
49568;Laerm;35474;51.032;6.998;2024-02-21T03:03:05;51.13;43.54;64.55;;
49568;Laerm;35474;51.032;6.998;2024-02-21T03:05:32;53.29;43.44;66.46;;
49568;Laerm;35474;51.032;6.998;2024-02-21T03:07:59;52.18;41.61;73.75;;
49568;Laerm;35474;51.032;6.998;2024-02-21T03:10:25;57.32;44.03;72.69;;
49568;Laerm;35474;51.032;6.998;2024-02-21T03:12:52;58.39;43.99;77.42;;
49568;Laerm;35474;51.032;6.998;2024-02-21T03:15:19;54.67;42.98;74.32;;
49568;Laerm;35474;51.032;6.998;2024-02-21T03:17:46;57.11;43.68;80.46;;
49568;Laerm;35474;51.032;6.998;2024-02-21T03:20:12;54.26;43.63;78.70;;
49568;Laerm;35474;51.032;6.998;2024-02-21T03:22:40;54.03;44.07;78.33;;
49568;Laerm;35474;51.032;6.998;2024-02-21T03:25:08;53.39;44.62;70.74;;
49568;Laerm;35474;51.032;6.998;2024-02-21T03:27:35;53.17;44.35;69.09;;
49568;Laerm;35474;51.032;6.998;2024-02-21T03:30:03;54.63;44.35;72.78;;
49568;Laerm;35474;51.032;6.998;2024-02-21T03:32:30;49.09;44.76;62.45;;
49568;Laerm;35474;51.032;6.998;2024-02-21T03:34:57;55.44;44.87;67.79;;
49568;Laerm;35474;51.032;6.998;2024-02-21T03:37:24;56.70;44.87;72.14;;
49568;Laerm;35474;51.032;6.998;2024-02-21T03:39:50;58.18;45.20;68.47;;
49568;Laerm;35474;51.032;6.998;2024-02-21T03:42:17;51.72;44.54;62.33;;
49568;Laerm;35474;51.032;6.998;2024-02-21T03:44:44;59.33;46.20;68.57;;
49568;Laerm;35474;51.032;6.998;2024-02-21T03:47:10;54.27;44.94;68.92;;
49568;Laerm;35474;51.032;6.998;2024-02-21T03:49:38;58.53;45.54;68.37;;
49568;Laerm;35474;51.032;6.998;2024-02-21T03:52:05;56.14;44.51;69.59;;
49568;Laerm;35474;51.032;6.998;2024-02-21T03:54:31;57.24;45.07;68.68;;
49568;Laerm;35474;51.032;6.998;2024-02-21T03:56:58;58.76;45.14;68.26;;
49568;Laerm;35474;51.032;6.998;2024-02-21T03:59:25;56.23;45.04;68.17;;
49568;Laerm;35474;51.032;6.998;2024-02-21T04:01:52;57.52;45.63;71.53;;
49568;Laerm;35474;51.032;6.998;2024-02-21T04:04:20;61.35;46.95;70.73;;
49568;Laerm;35474;51.032;6.998;2024-02-21T04:06:50;59.19;45.80;68.62;;
49568;Laerm;35474;51.032;6.998;2024-02-21T04:09:17;65.97;46.73;92.63;;
49568;Laerm;35474;51.032;6.998;2024-02-21T04:11:44;58.01;44.73;76.21;;
49568;Laerm;35474;51.032;6.998;2024-02-21T04:14:11;55.33;45.45;66.21;;
49568;Laerm;35474;51.032;6.998;2024-02-21T04:16:40;60.16;44.69;71.48;;
49568;Laerm;35474;51.032;6.998;2024-02-21T04:19:07;59.75;45.33;72.28;;
49568;Laerm;35474;51.032;6.998;2024-02-21T04:21:34;61.31;47.68;74.30;;
49568;Laerm;35474;51.032;6.998;2024-02-21T04:24:01;59.34;45.63;71.77;;
49568;Laerm;35474;51.032;6.998;2024-02-21T04:26:29;61.76;46.45;70.98;;
49568;Laerm;35474;51.032;6.998;2024-02-21T04:28:56;61.11;45.69;72.96;;
49568;Laerm;35474;51.032;6.998;2024-02-21T04:31:22;63.53;45.60;73.02;;
49568;Laerm;35474;51.032;6.998;2024-02-21T04:33:49;62.47;48.40;70.44;;
49568;Laerm;35474;51.032;6.998;2024-02-21T04:36:16;62.57;47.72;76.55;;
49568;Laerm;35474;51.032;6.998;2024-02-21T04:38:42;61.54;46.28;72.72;;
49568;Laerm;35474;51.032;6.998;2024-02-21T04:41:09;62.10;47.28;70.52;;
49568;Laerm;35474;51.032;6.998;2024-02-21T04:43:35;63.87;47.06;74.89;;
49568;Laerm;35474;51.032;6.998;2024-02-21T04:46:02;61.73;47.77;71.90;;
49568;Laerm;35474;51.032;6.998;2024-02-21T04:48:29;63.99;50.01;73.06;;
49568;Laerm;35474;51.032;6.998;2024-02-21T04:50:55;63.85;49.96;71.33;;
49568;Laerm;35474;51.032;6.998;2024-02-21T04:53:22;62.15;47.13;71.63;;
49568;Laerm;35474;51.032;6.998;2024-02-21T04:55:48;60.95;46.35;73.60;;
49568;Laerm;35474;51.032;6.998;2024-02-21T04:58:16;63.18;47.74;72.10;;
49568;Laerm;35474;51.032;6.998;2024-02-21T05:00:43;61.94;49.19;70.04;;
49568;Laerm;35474;51.032;6.998;2024-02-21T05:03:09;61.63;46.43;71.12;;
49568;Laerm;35474;51.032;6.998;2024-02-21T05:05:36;60.83;46.93;69.87;;
49568;Laerm;35474;51.032;6.998;2024-02-21T05:08:03;63.18;51.04;72.96;;
49568;Laerm;35474;51.032;6.998;2024-02-21T05:10:30;63.89;49.65;70.20;;
49568;Laerm;35474;51.032;6.998;2024-02-21T05:12:57;62.51;47.22;73.86;;
49568;Laerm;35474;51.032;6.998;2024-02-21T05:15:24;62.60;47.79;73.43;;
49568;Laerm;35474;51.032;6.998;2024-02-21T05:17:50;64.35;49.21;72.33;;
49568;Laerm;35474;51.032;6.998;2024-02-21T05:20:17;63.14;48.45;80.55;;
49568;Laerm;35474;51.032;6.998;2024-02-21T05:22:43;63.49;50.64;81.33;;
49568;Laerm;35474;51.032;6.998;2024-02-21T05:25:10;63.10;49.68;74.67;;
49568;Laerm;35474;51.032;6.998;2024-02-21T05:27:36;63.96;50.77;70.86;;
49568;Laerm;35474;51.032;6.998;2024-02-21T05:30:05;63.16;49.59;70.10;;
49568;Laerm;35474;51.032;6.998;2024-02-21T05:32:33;64.02;50.85;71.26;;
49568;Laerm;35474;51.032;6.998;2024-02-21T05:34:59;66.03;53.94;75.89;;
49568;Laerm;35474;51.032;6.998;2024-02-21T05:37:26;65.21;50.55;73.95;;
49568;Laerm;35474;51.032;6.998;2024-02-21T05:39:53;63.64;48.26;71.96;;
49568;Laerm;35474;51.032;6.998;2024-02-21T05:42:19;64.47;49.27;72.56;;
49568;Laerm;35474;51.032;6.998;2024-02-21T05:44:46;63.41;49.16;71.62;;
49568;Laerm;35474;51.032;6.998;2024-02-21T05:47:13;65.44;50.68;72.31;;
49568;Laerm;35474;51.032;6.998;2024-02-21T05:49:41;64.76;53.11;72.07;;
49568;Laerm;35474;51.032;6.998;2024-02-21T05:52:08;63.55;49.85;74.89;;
49568;Laerm;35474;51.032;6.998;2024-02-21T05:54:37;64.75;50.06;75.31;;
49568;Laerm;35474;51.032;6.998;2024-02-21T05:57:04;64.79;50.22;72.70;;
49568;Laerm;35474;51.032;6.998;2024-02-21T05:59:30;64.76;49.84;73.00;;
49568;Laerm;35474;51.032;6.998;2024-02-21T06:01:57;66.01;49.07;73.56;;
49568;Laerm;35474;51.032;6.998;2024-02-21T06:04:24;65.43;52.28;71.98;;
49568;Laerm;35474;51.032;6.998;2024-02-21T06:06:51;65.19;49.15;74.45;;
49568;Laerm;35474;51.032;6.998;2024-02-21T06:09:18;63.59;50.96;72.54;;
49568;Laerm;35474;51.032;6.998;2024-02-21T06:11:44;66.34;56.36;78.69;;
49568;Laerm;35474;51.032;6.998;2024-02-21T06:14:12;66.54;52.22;87.46;;
49568;Laerm;35474;51.032;6.998;2024-02-21T06:16:39;66.51;52.45;81.47;;
49568;Laerm;35474;51.032;6.998;2024-02-21T06:19:06;68.23;54.25;86.84;;
49568;Laerm;35474;51.032;6.998;2024-02-21T06:21:36;64.61;47.57;80.81;;
49568;Laerm;35474;51.032;6.998;2024-02-21T06:24:05;64.96;54.77;83.28;;
49568;Laerm;35474;51.032;6.998;2024-02-21T06:26:31;65.10;50.06;79.91;;
49568;Laerm;35474;51.032;6.998;2024-02-21T06:28:58;67.88;50.89;86.05;;
49568;Laerm;35474;51.032;6.998;2024-02-21T06:31:27;67.31;49.89;91.31;;
49568;Laerm;35474;51.032;6.998;2024-02-21T06:33:53;68.55;52.44;91.48;;
49568;Laerm;35474;51.032;6.998;2024-02-21T06:36:20;67.79;53.87;86.64;;
49568;Laerm;35474;51.032;6.998;2024-02-21T06:38:46;66.09;49.44;74.84;;
49568;Laerm;35474;51.032;6.998;2024-02-21T06:41:16;66.32;52.28;78.81;;
49568;Laerm;35474;51.032;6.998;2024-02-21T06:43:45;65.25;50.45;81.70;;
49568;Laerm;35474;51.032;6.998;2024-02-21T06:46:22;67.66;49.74;86.99;;
49568;Laerm;35474;51.032;6.998;2024-02-21T06:48:49;65.64;48.34;83.48;;
49568;Laerm;35474;51.032;6.998;2024-02-21T06:51:15;66.03;54.53;82.10;;
49568;Laerm;35474;51.032;6.998;2024-02-21T06:53:42;68.12;55.23;83.31;;
49568;Laerm;35474;51.032;6.998;2024-02-21T06:56:10;68.16;58.50;90.50;;
49568;Laerm;35474;51.032;6.998;2024-02-21T06:58:37;66.17;55.90;89.48;;
49568;Laerm;35474;51.032;6.998;2024-02-21T07:01:04;72.62;57.86;97.41;;
49568;Laerm;35474;51.032;6.998;2024-02-21T07:03:30;68.05;55.94;93.75;;
49568;Laerm;35474;51.032;6.998;2024-02-21T07:05:57;66.94;57.99;87.61;;
49568;Laerm;35474;51.032;6.998;2024-02-21T07:08:26;64.44;53.70;84.76;;
49568;Laerm;35474;51.032;6.998;2024-02-21T07:10:53;65.29;56.76;78.67;;
49568;Laerm;35474;51.032;6.998;2024-02-21T07:13:20;64.95;54.67;72.86;;
49568;Laerm;35474;51.032;6.998;2024-02-21T07:15:48;65.98;52.38;79.66;;
49568;Laerm;35474;51.032;6.998;2024-02-21T07:18:15;66.82;53.90;86.57;;
49568;Laerm;35474;51.032;6.998;2024-02-21T07:20:42;66.39;52.46;85.16;;
49568;Laerm;35474;51.032;6.998;2024-02-21T07:23:09;65.75;54.84;74.25;;
49568;Laerm;35474;51.032;6.998;2024-02-21T07:25:35;65.23;47.08;82.36;;
49568;Laerm;35474;51.032;6.998;2024-02-21T07:28:02;63.76;51.12;71.83;;
49568;Laerm;35474;51.032;6.998;2024-02-21T07:32:34;65.59;49.03;72.26;;
49568;Laerm;35474;51.032;6.998;2024-02-21T07:35:01;64.33;50.64;73.48;;
49568;Laerm;35474;51.032;6.998;2024-02-21T07:37:28;64.62;52.80;71.38;;
49568;Laerm;35474;51.032;6.998;2024-02-21T07:39:58;64.72;48.88;73.78;;
49568;Laerm;35474;51.032;6.998;2024-02-21T07:42:24;67.11;50.69;83.72;;
49568;Laerm;35474;51.032;6.998;2024-02-21T07:44:52;64.90;53.36;75.86;;
49568;Laerm;35474;51.032;6.998;2024-02-21T07:47:19;64.83;49.49;76.17;;
49568;Laerm;35474;51.032;6.998;2024-02-21T07:49:46;66.08;52.88;78.53;;
49568;Laerm;35474;51.032;6.998;2024-02-21T07:52:13;65.84;53.46;74.73;;
49568;Laerm;35474;51.032;6.998;2024-02-21T07:54:39;66.82;57.09;75.53;;
49568;Laerm;35474;51.032;6.998;2024-02-21T07:57:06;66.36;56.85;76.89;;
49568;Laerm;35474;51.032;6.998;2024-02-21T07:59:33;65.20;52.09;82.21;;
49568;Laerm;35474;51.032;6.998;2024-02-21T08:01:59;66.24;48.28;78.68;;
49568;Laerm;35474;51.032;6.998;2024-02-21T08:04:26;65.12;52.88;78.49;;
49568;Laerm;35474;51.032;6.998;2024-02-21T08:06:53;66.36;49.07;84.00;;
49568;Laerm;35474;51.032;6.998;2024-02-21T08:09:22;64.38;50.44;82.05;;
49568;Laerm;35474;51.032;6.998;2024-02-21T08:11:49;65.52;54.17;75.02;;
49568;Laerm;35474;51.032;6.998;2024-02-21T08:14:15;66.50;52.19;89.70;;
49568;Laerm;35474;51.032;6.998;2024-02-21T08:16:46;68.50;56.78;87.90;;
49568;Laerm;35474;51.032;6.998;2024-02-21T08:19:13;64.19;52.14;77.83;;
49568;Laerm;35474;51.032;6.998;2024-02-21T08:21:40;63.90;48.81;73.29;;
49568;Laerm;35474;51.032;6.998;2024-02-21T08:24:06;64.03;50.12;81.69;;
49568;Laerm;35474;51.032;6.998;2024-02-21T08:26:33;67.23;52.53;83.86;;
49568;Laerm;35474;51.032;6.998;2024-02-21T08:28:59;66.60;50.56;86.55;;
49568;Laerm;35474;51.032;6.998;2024-02-21T08:31:29;65.44;53.49;79.91;;
49568;Laerm;35474;51.032;6.998;2024-02-21T08:33:58;65.99;56.51;82.96;;
49568;Laerm;35474;51.032;6.998;2024-02-21T08:36:35;66.22;55.37;81.35;;
49568;Laerm;35474;51.032;6.998;2024-02-21T08:39:03;66.34;57.25;76.27;;
49568;Laerm;35474;51.032;6.998;2024-02-21T08:41:33;66.53;47.96;84.15;;
49568;Laerm;35474;51.032;6.998;2024-02-21T08:44:19;65.60;48.92;77.96;;
49568;Laerm;35474;51.032;6.998;2024-02-21T08:46:46;67.23;49.29;85.72;;
49568;Laerm;35474;51.032;6.998;2024-02-21T08:49:13;75.16;50.85;98.91;;
49568;Laerm;35474;51.032;6.998;2024-02-21T08:51:40;67.41;53.74;87.54;;
49568;Laerm;35474;51.032;6.998;2024-02-21T08:54:07;66.55;57.72;88.20;;
49568;Laerm;35474;51.032;6.998;2024-02-21T08:56:34;67.53;58.71;84.10;;
49568;Laerm;35474;51.032;6.998;2024-02-21T08:59:01;67.30;49.23;91.04;;
49568;Laerm;35474;51.032;6.998;2024-02-21T09:01:28;64.81;52.92;85.68;;
49568;Laerm;35474;51.032;6.998;2024-02-21T09:03:55;76.47;52.50;98.54;;
49568;Laerm;35474;51.032;6.998;2024-02-21T09:06:23;68.76;58.28;93.70;;
49568;Laerm;35474;51.032;6.998;2024-02-21T09:08:49;66.25;51.95;86.22;;
49568;Laerm;35474;51.032;6.998;2024-02-21T09:11:16;68.24;54.58;93.12;;
49568;Laerm;35474;51.032;6.998;2024-02-21T09:13:42;68.62;54.04;91.73;;
49568;Laerm;35474;51.032;6.998;2024-02-21T09:16:11;67.47;51.51;86.06;;
49568;Laerm;35474;51.032;6.998;2024-02-21T09:18:37;66.96;49.93;89.50;;
49568;Laerm;35474;51.032;6.998;2024-02-21T09:21:04;66.48;56.74;80.84;;
49568;Laerm;35474;51.032;6.998;2024-02-21T09:23:30;64.94;53.57;80.35;;
49568;Laerm;35474;51.032;6.998;2024-02-21T09:25:58;64.99;49.28;82.32;;
49568;Laerm;35474;51.032;6.998;2024-02-21T09:28:27;64.31;48.60;75.28;;
49568;Laerm;35474;51.032;6.998;2024-02-21T09:30:54;64.71;51.47;80.34;;
49568;Laerm;35474;51.032;6.998;2024-02-21T09:33:20;65.35;53.01;78.50;;
49568;Laerm;35474;51.032;6.998;2024-02-21T09:35:57;64.62;50.99;81.48;;
49568;Laerm;35474;51.032;6.998;2024-02-21T09:38:24;66.91;56.58;88.95;;
49568;Laerm;35474;51.032;6.998;2024-02-21T09:40:59;67.76;57.63;86.43;;
49568;Laerm;35474;51.032;6.998;2024-02-21T09:43:26;65.92;53.09;79.63;;
49568;Laerm;35474;51.032;6.998;2024-02-21T09:45:54;67.95;57.63;89.83;;
49568;Laerm;35474;51.032;6.998;2024-02-21T09:48:32;66.12;48.60;88.30;;
49568;Laerm;35474;51.032;6.998;2024-02-21T09:51:02;65.89;56.78;82.58;;
49568;Laerm;35474;51.032;6.998;2024-02-21T09:53:30;69.37;53.26;87.33;;
49568;Laerm;35474;51.032;6.998;2024-02-21T09:55:58;78.08;57.32;97.50;;
49568;Laerm;35474;51.032;6.998;2024-02-21T09:58:26;68.82;53.58;88.21;;
49568;Laerm;35474;51.032;6.998;2024-02-21T10:00:54;65.62;54.28;77.26;;
49568;Laerm;35474;51.032;6.998;2024-02-21T10:03:20;64.70;50.70;75.33;;
49568;Laerm;35474;51.032;6.998;2024-02-21T10:05:49;66.20;54.39;79.17;;
49568;Laerm;35474;51.032;6.998;2024-02-21T10:08:19;67.03;56.52;82.83;;
49568;Laerm;35474;51.032;6.998;2024-02-21T10:10:46;71.96;50.44;93.23;;
49568;Laerm;35474;51.032;6.998;2024-02-21T10:13:27;68.80;56.27;88.15;;
49568;Laerm;35474;51.032;6.998;2024-02-21T10:16:05;71.30;51.52;95.33;;
49568;Laerm;35474;51.032;6.998;2024-02-21T10:18:33;65.22;49.66;78.84;;
49568;Laerm;35474;51.032;6.998;2024-02-21T10:21:04;66.47;52.66;83.71;;
49568;Laerm;35474;51.032;6.998;2024-02-21T10:23:41;66.19;50.35;90.60;;
49568;Laerm;35474;51.032;6.998;2024-02-21T10:26:09;63.92;49.16;76.59;;
49568;Laerm;35474;51.032;6.998;2024-02-21T10:28:37;66.26;52.77;82.10;;
49568;Laerm;35474;51.032;6.998;2024-02-21T10:31:04;65.74;54.33;84.37;;
49568;Laerm;35474;51.032;6.998;2024-02-21T10:33:31;63.87;52.66;74.64;;
49568;Laerm;35474;51.032;6.998;2024-02-21T10:36:08;65.35;54.47;77.79;;
49568;Laerm;35474;51.032;6.998;2024-02-21T10:38:37;66.39;53.39;85.95;;
49568;Laerm;35474;51.032;6.998;2024-02-21T10:41:05;65.61;48.37;84.75;;
49568;Laerm;35474;51.032;6.998;2024-02-21T10:43:39;65.58;51.80;85.32;;
49568;Laerm;35474;51.032;6.998;2024-02-21T10:46:09;76.65;54.39;100.52;;
49568;Laerm;35474;51.032;6.998;2024-02-21T10:48:44;67.13;51.62;83.62;;
49568;Laerm;35474;51.032;6.998;2024-02-21T10:51:18;78.97;53.90;102.44;;
49568;Laerm;35474;51.032;6.998;2024-02-21T10:56:29;67.21;54.29;89.41;;
49568;Laerm;35474;51.032;6.998;2024-02-21T10:58:58;65.62;54.14;87.19;;
49568;Laerm;35474;51.032;6.998;2024-02-21T11:01:28;77.27;48.88;99.19;;
49568;Laerm;35474;51.032;6.998;2024-02-21T11:03:58;77.17;52.90;98.78;;
49568;Laerm;35474;51.032;6.998;2024-02-21T11:06:27;68.46;55.02;88.80;;
49568;Laerm;35474;51.032;6.998;2024-02-21T11:11:27;77.40;51.44;100.73;;
49568;Laerm;35474;51.032;6.998;2024-02-21T11:14:09;67.84;54.67;87.55;;
49568;Laerm;35474;51.032;6.998;2024-02-21T11:16:41;66.48;56.11;79.97;;
49568;Laerm;35474;51.032;6.998;2024-02-21T11:19:10;72.25;52.02;94.00;;
49568;Laerm;35474;51.032;6.998;2024-02-21T11:21:45;70.55;53.15;95.31;;
49568;Laerm;35474;51.032;6.998;2024-02-21T11:24:11;68.16;54.09;89.64;;
49568;Laerm;35474;51.032;6.998;2024-02-21T11:26:39;67.31;53.99;84.93;;
49568;Laerm;35474;51.032;6.998;2024-02-21T11:29:05;69.36;55.72;90.93;;
49568;Laerm;35474;51.032;6.998;2024-02-21T11:31:42;69.69;49.24;92.42;;
49568;Laerm;35474;51.032;6.998;2024-02-21T11:34:12;69.62;53.07;87.76;;
49568;Laerm;35474;51.032;6.998;2024-02-21T11:36:49;70.39;56.00;95.28;;
49568;Laerm;35474;51.032;6.998;2024-02-21T11:39:24;74.11;54.44;96.55;;
49568;Laerm;35474;51.032;6.998;2024-02-21T11:42:05;68.09;55.92;89.83;;
49568;Laerm;35474;51.032;6.998;2024-02-21T11:44:32;75.00;53.68;99.17;;
49568;Laerm;35474;51.032;6.998;2024-02-21T11:46:58;73.45;53.79;96.67;;
49568;Laerm;35474;51.032;6.998;2024-02-21T11:49:26;78.93;55.06;100.45;;
49568;Laerm;35474;51.032;6.998;2024-02-21T11:52:03;77.30;51.25;101.56;;
49568;Laerm;35474;51.032;6.998;2024-02-21T11:54:34;72.61;54.23;91.89;;
49568;Laerm;35474;51.032;6.998;2024-02-21T11:57:01;77.36;53.35;100.30;;
49568;Laerm;35474;51.032;6.998;2024-02-21T11:59:30;73.47;54.35;96.37;;
49568;Laerm;35474;51.032;6.998;2024-02-21T12:01:59;69.10;52.74;93.56;;
49568;Laerm;35474;51.032;6.998;2024-02-21T12:04:29;70.49;55.10;94.09;;
49568;Laerm;35474;51.032;6.998;2024-02-21T12:06:59;77.28;53.33;97.79;;
49568;Laerm;35474;51.032;6.998;2024-02-21T12:09:26;66.75;51.26;89.16;;
49568;Laerm;35474;51.032;6.998;2024-02-21T12:12:01;69.41;51.26;95.51;;
49568;Laerm;35474;51.032;6.998;2024-02-21T12:14:29;72.28;49.82;96.38;;
49568;Laerm;35474;51.032;6.998;2024-02-21T12:17:00;85.05;52.78;107.57;;
49568;Laerm;35474;51.032;6.998;2024-02-21T12:19:31;79.91;49.44;100.67;;
49568;Laerm;35474;51.032;6.998;2024-02-21T12:21:59;71.51;50.44;94.29;;
49568;Laerm;35474;51.032;6.998;2024-02-21T12:24:27;75.96;50.50;98.10;;
49568;Laerm;35474;51.032;6.998;2024-02-21T12:26:54;83.45;51.03;105.31;;
49568;Laerm;35474;51.032;6.998;2024-02-21T12:29:22;86.40;52.62;105.60;;
49568;Laerm;35474;51.032;6.998;2024-02-21T12:31:49;83.83;52.38;104.12;;
49568;Laerm;35474;51.032;6.998;2024-02-21T12:34:16;75.84;54.01;96.82;;
49568;Laerm;35474;51.032;6.998;2024-02-21T12:36:56;70.87;51.84;97.73;;
49568;Laerm;35474;51.032;6.998;2024-02-21T12:39:23;74.83;53.72;98.89;;
49568;Laerm;35474;51.032;6.998;2024-02-21T12:41:49;83.34;58.35;108.12;;
49568;Laerm;35474;51.032;6.998;2024-02-21T12:44:16;83.16;50.49;108.29;;
49568;Laerm;35474;51.032;6.998;2024-02-21T12:46:44;85.44;53.66;106.46;;
49568;Laerm;35474;51.032;6.998;2024-02-21T12:49:11;77.36;54.56;96.25;;
49568;Laerm;35474;51.032;6.998;2024-02-21T12:51:39;83.59;56.36;105.57;;
49568;Laerm;35474;51.032;6.998;2024-02-21T12:54:06;91.15;60.07;114.09;;
49568;Laerm;35474;51.032;6.998;2024-02-21T12:56:32;92.45;55.13;113.80;;
49568;Laerm;35474;51.032;6.998;2024-02-21T12:58:59;91.26;55.47;110.85;;
49568;Laerm;35474;51.032;6.998;2024-02-21T13:01:26;84.34;54.95;106.54;;
49568;Laerm;35474;51.032;6.998;2024-02-21T13:03:54;75.65;51.16;101.30;;
49568;Laerm;35474;51.032;6.998;2024-02-21T13:06:22;84.81;59.17;108.03;;
49568;Laerm;35474;51.032;6.998;2024-02-21T13:08:50;75.57;59.66;97.02;;
49568;Laerm;35474;51.032;6.998;2024-02-21T13:11:17;68.30;58.66;80.93;;
49568;Laerm;35474;51.032;6.998;2024-02-21T13:13:44;82.04;57.34;109.41;;
49568;Laerm;35474;51.032;6.998;2024-02-21T13:16:10;87.14;57.20;106.29;;
49568;Laerm;35474;51.032;6.998;2024-02-21T13:18:37;86.15;61.32;111.67;;
49568;Laerm;35474;51.032;6.998;2024-02-21T13:21:09;77.38;54.29;96.04;;
49568;Laerm;35474;51.032;6.998;2024-02-21T13:23:35;71.20;53.91;94.77;;
49568;Laerm;35474;51.032;6.998;2024-02-21T13:26:02;74.63;54.15;94.47;;
49568;Laerm;35474;51.032;6.998;2024-02-21T13:28:28;80.95;54.11;103.65;;
49568;Laerm;35474;51.032;6.998;2024-02-21T13:30:55;76.40;55.26;98.77;;
49568;Laerm;35474;51.032;6.998;2024-02-21T13:33:22;81.77;54.28;104.61;;
49568;Laerm;35474;51.032;6.998;2024-02-21T13:35:49;78.81;53.98;107.59;;
49568;Laerm;35474;51.032;6.998;2024-02-21T13:38:15;75.33;53.17;99.34;;
49568;Laerm;35474;51.032;6.998;2024-02-21T13:40:42;71.11;48.69;94.91;;
49568;Laerm;35474;51.032;6.998;2024-02-21T13:43:08;76.10;58.81;99.20;;
49568;Laerm;35474;51.032;6.998;2024-02-21T13:45:37;73.43;53.03;97.08;;
49568;Laerm;35474;51.032;6.998;2024-02-21T13:48:04;75.69;57.37;101.37;;
49568;Laerm;35474;51.032;6.998;2024-02-21T13:50:33;73.34;55.21;93.91;;
49568;Laerm;35474;51.032;6.998;2024-02-21T13:53:08;82.07;55.83;104.07;;
49568;Laerm;35474;51.032;6.998;2024-02-21T13:55:35;70.79;50.28;91.97;;
49568;Laerm;35474;51.032;6.998;2024-02-21T13:58:03;69.69;50.58;93.19;;